Time;durP1;ratioP1;P1;durP2;ratioP2;P2;SDS_P1;SDS_P2;PMS_P1;PMS_P2;Temp;Humidity;BMP_temperature;BMP_pressure;BME280_temperature;BME280_humidity;BME280_pressure;Samples;Min_cycle;Max_cycle;Signal;HPM_P1;HPM_P2
2022/05/04 00:00:29;;;;;;;;;30.50;27.50;;;;;;;;5083630;27;46474;-64
2022/05/04 00:02:54;;;;;;;;;29.25;25.50;;;;;;;;5085405;27;45716;-67
2022/05/04 00:05:19;;;;;;;;;27.25;26.25;;;;;;;;5085763;27;45417;-64
2022/05/04 00:07:45;;;;;;;;;28.00;26.00;;;;;;;;5063003;28;45294;-67
2022/05/04 00:10:10;;;;;;;;;30.75;28.00;;;;;;;;5079638;27;45419;-66
2022/05/04 00:12:36;;;;;;;;;30.00;27.75;;;;;;;;5083116;27;45301;-65
2022/05/04 00:15:01;;;;;;;;;32.50;29.50;;;;;;;;5085664;27;45384;-65
2022/05/04 00:17:26;;;;;;;;;24.00;24.00;;;;;;;;5068498;28;45310;-65
2022/05/04 00:19:52;;;;;;;;;28.50;28.50;;;;;;;;5085425;27;46689;-66
2022/05/04 00:22:18;;;;;;;;;32.75;28.25;;;;;;;;5080608;27;45321;-65
2022/05/04 00:24:43;;;;;;;;;31.50;28.25;;;;;;;;5081594;27;45357;-65
2022/05/04 00:27:08;;;;;;;;;23.00;22.00;;;;;;;;5084784;27;45310;-65
2022/05/04 00:29:34;;;;;;;;;29.25;28.25;;;;;;;;5084593;27;46541;-63
2022/05/04 00:31:59;;;;;;;;;22.00;21.25;;;;;;;;5061009;27;45659;-64
2022/05/04 00:34:24;;;;;;;;;27.75;24.75;;;;;;;;5096607;27;45616;-64
2022/05/04 00:36:49;;;;;;;;;29.75;28.50;;;;;;;;5081148;27;45396;-64
2022/05/04 00:39:14;;;;;;;;;31.50;26.50;;;;;;;;5084977;27;46554;-64
2022/05/04 00:41:40;;;;;;;;;25.50;22.00;;;;;;;;5066158;28;45587;-66
2022/05/04 00:44:05;;;;;;;;;26.75;26.75;;;;;;;;5086964;27;45899;-64
2022/05/04 00:46:30;;;;;;;;;27.00;25.25;;;;;;;;5096571;27;45945;-63
2022/05/04 00:48:55;;;;;;;;;27.00;27.00;;;;;;;;5080284;27;46242;-64
2022/05/04 00:51:21;;;;;;;;;29.75;25.00;;;;;;;;5084334;27;45434;-64
2022/05/04 00:53:47;;;;;;;;;34.00;27.25;;;;;;;;5070377;28;45875;-65
2022/05/04 00:56:12;;;;;;;;;31.00;26.00;;;;;;;;5084665;27;45640;-64
2022/05/04 00:58:56;;;;;;;;;29.25;27.00;;;;;;;;5082529;27;45541;-64
2022/05/04 01:01:26;;;;;;;;;30.75;29.50;;;;;;;;5080084;27;45456;-65
2022/05/04 01:03:52;;;;;;;;;29.50;28.00;;;;;;;;5080253;27;45580;-65
2022/05/04 01:06:17;;;;;;;;;26.75;25.50;;;;;;;;5066342;28;45735;-65
2022/05/04 01:08:42;;;;;;;;;20.75;19.50;;;;;;;;5084022;27;46461;-64
2022/05/04 01:11:07;;;;;;;;;28.00;26.00;;;;;;;;5084250;27;45408;-64
2022/05/04 01:13:32;;;;;;;;;29.75;27.75;;;;;;;;5061516;27;45509;-64
2022/05/04 01:15:58;;;;;;;;;29.75;27.75;;;;;;;;5079478;27;45564;-64
2022/05/04 01:18:23;;;;;;;;;27.50;26.75;;;;;;;;5070012;28;47668;-65
2022/05/04 01:20:49;;;;;;;;;24.75;22.25;;;;;;;;5092167;27;45411;-65
2022/05/04 01:23:15;;;;;;;;;27.25;25.00;;;;;;;;5093140;27;45432;-65
2022/05/04 01:25:41;;;;;;;;;27.75;25.00;;;;;;;;5082681;27;45419;-63
2022/05/04 01:28:06;;;;;;;;;28.75;28.00;;;;;;;;5078990;27;45467;-65
2022/05/04 01:30:32;;;;;;;;;30.25;26.75;;;;;;;;5064461;28;45468;-64
2022/05/04 01:32:57;;;;;;;;;27.50;25.75;;;;;;;;5084166;27;45632;-64
2022/05/04 01:35:22;;;;;;;;;29.25;27.25;;;;;;;;5088215;27;45532;-65
2022/05/04 01:37:48;;;;;;;;;27.50;25.00;;;;;;;;5095854;27;46925;-64
2022/05/04 01:40:13;;;;;;;;;25.25;24.00;;;;;;;;5079344;27;45331;-64
2022/05/04 01:42:38;;;;;;;;;32.25;30.25;;;;;;;;5081645;27;45465;-65
2022/05/04 01:45:05;;;;;;;;;28.75;26.75;;;;;;;;5084262;27;45536;-64
2022/05/04 01:47:30;;;;;;;;;35.00;30.25;;;;;;;;5065290;28;47624;-65
2022/05/04 01:49:55;;;;;;;;;31.00;29.75;;;;;;;;5083810;27;45802;-65
2022/05/04 01:52:21;;;;;;;;;29.50;28.00;;;;;;;;5079971;27;45562;-65
2022/05/04 01:54:46;;;;;;;;;32.25;30.25;;;;;;;;5092093;27;45320;-64
2022/05/04 01:57:11;;;;;;;;;34.25;32.25;;;;;;;;5083986;27;46607;-64
2022/05/04 01:59:36;;;;;;;;;35.50;32.50;;;;;;;;5083993;27;45433;-65
2022/05/04 02:02:02;;;;;;;;;30.50;28.25;;;;;;;;5087743;27;45328;-65
2022/05/04 02:04:27;;;;;;;;;31.50;29.00;;;;;;;;5077270;27;45519;-63
2022/05/04 02:06:52;;;;;;;;;35.75;31.50;;;;;;;;5079320;27;46131;-63
2022/05/04 02:09:18;;;;;;;;;29.00;28.00;;;;;;;;5083455;27;45341;-64
2022/05/04 02:11:43;;;;;;;;;32.75;24.25;;;;;;;;5064033;28;45491;-64
2022/05/04 02:14:09;;;;;;;;;34.25;30.00;;;;;;;;5082585;27;45522;-64
2022/05/04 02:16:34;;;;;;;;;26.50;25.75;;;;;;;;5080993;27;47299;-64
2022/05/04 02:18:59;;;;;;;;;27.25;27.25;;;;;;;;5079046;27;45437;-65
2022/05/04 02:21:25;;;;;;;;;31.75;29.50;;;;;;;;5064600;28;45467;-64
2022/05/04 02:23:50;;;;;;;;;30.50;25.50;;;;;;;;5083634;27;45426;-64
2022/05/04 02:26:16;;;;;;;;;33.75;31.25;;;;;;;;5064709;28;48598;-64
2022/05/04 02:28:43;;;;;;;;;30.75;29.50;;;;;;;;5081498;27;45373;-64
2022/05/04 02:31:08;;;;;;;;;30.75;30.25;;;;;;;;5078841;27;45629;-64
2022/05/04 02:33:33;;;;;;;;;26.00;25.25;;;;;;;;5081066;27;45755;-64
2022/05/04 02:38:42;;;;;;;;;31.25;30.75;;;;;;;;5083223;27;45545;-64
2022/05/04 02:41:08;;;;;;;;;36.50;32.25;;;;;;;;5063344;28;45385;-63
2022/05/04 02:43:33;;;;;;;;;28.25;23.50;;;;;;;;5080653;27;45548;-64
2022/05/04 02:46:11;;;;;;;;;34.00;31.00;;;;;;;;5078505;27;46291;-64
2022/05/04 02:48:36;;;;;;;;;29.75;28.75;;;;;;;;5093914;27;45380;-64
2022/05/04 02:51:01;;;;;;;;;28.75;28.25;;;;;;;;5084765;27;45510;-63
2022/05/04 02:53:26;;;;;;;;;30.25;30.25;;;;;;;;5082796;27;45508;-64
2022/05/04 02:55:51;;;;;;;;;29.00;27.00;;;;;;;;5082660;27;46317;-63
2022/05/04 02:58:17;;;;;;;;;30.00;27.75;;;;;;;;5078278;27;45329;-64
2022/05/04 03:00:42;;;;;;;;;28.25;25.75;;;;;;;;5079650;27;45495;-64
2022/05/04 03:03:07;;;;;;;;;28.25;27.75;;;;;;;;5082547;27;45499;-63
2022/05/04 03:05:32;;;;;;;;;32.75;27.75;;;;;;;;5082468;27;45835;-63
2022/05/04 03:07:57;;;;;;;;;31.25;29.25;;;;;;;;5062806;27;45343;-63
2022/05/04 03:10:23;;;;;;;;;38.25;32.75;;;;;;;;5077138;27;45586;-64
2022/05/04 03:12:48;;;;;;;;;32.00;28.00;;;;;;;;5077652;27;45351;-64
2022/05/04 03:15:13;;;;;;;;;36.50;31.25;;;;;;;;5079504;27;45593;-65
2022/05/04 03:17:38;;;;;;;;;35.00;31.50;;;;;;;;5080651;27;45263;-64
2022/05/04 03:20:05;;;;;;;;;28.50;28.50;;;;;;;;5073136;27;45309;-64
2022/05/04 03:22:32;;;;;;;;;37.75;34.00;;;;;;;;5087191;27;45572;-65
2022/05/04 03:24:58;;;;;;;;;34.00;30.75;;;;;;;;5077070;27;45561;-65
2022/05/04 03:27:23;;;;;;;;;33.75;30.75;;;;;;;;5078996;27;45401;-64
2022/05/04 03:29:48;;;;;;;;;33.75;27.50;;;;;;;;5079649;27;45522;-64
2022/05/04 03:32:13;;;;;;;;;38.25;32.00;;;;;;;;5060891;28;45520;-64
2022/05/04 03:34:39;;;;;;;;;40.00;34.00;;;;;;;;5091321;27;45690;-64
2022/05/04 03:37:04;;;;;;;;;33.50;30.50;;;;;;;;5076591;27;45412;-63
2022/05/04 03:39:29;;;;;;;;;37.00;30.75;;;;;;;;5068821;27;45598;-64
2022/05/04 03:41:55;;;;;;;;;37.75;31.50;;;;;;;;5057087;28;45618;-64
2022/05/04 03:44:20;;;;;;;;;33.50;31.75;;;;;;;;5062746;28;48452;-65
2022/05/04 03:46:46;;;;;;;;;29.75;28.25;;;;;;;;5080973;27;45511;-65
2022/05/04 03:49:12;;;;;;;;;39.75;31.25;;;;;;;;5077316;27;45401;-65
2022/05/04 03:51:37;;;;;;;;;34.25;32.25;;;;;;;;5080000;27;45376;-64
2022/05/04 03:54:03;;;;;;;;;34.00;32.50;;;;;;;;5062401;28;47348;-64
2022/05/04 03:56:28;;;;;;;;;31.00;30.00;;;;;;;;5082004;27;45576;-64
2022/05/04 03:58:53;;;;;;;;;29.00;28.50;;;;;;;;5081857;27;45428;-64
2022/05/04 04:01:20;;;;;;;;;36.00;31.50;;;;;;;;5077128;27;45381;-64
2022/05/04 04:03:45;;;;;;;;;34.25;30.50;;;;;;;;5093988;27;46439;-64
2022/05/04 04:06:11;;;;;;;;;38.75;31.25;;;;;;;;5082338;27;45496;-64
2022/05/04 04:08:36;;;;;;;;;31.75;28.75;;;;;;;;5082085;27;45559;-64
2022/05/04 04:11:02;;;;;;;;;30.00;29.75;;;;;;;;5081478;27;45487;-63
2022/05/04 04:13:27;;;;;;;;;35.25;32.25;;;;;;;;5078243;27;46716;-64
2022/05/04 04:15:53;;;;;;;;;38.00;31.50;;;;;;;;5077400;27;45388;-63
2022/05/04 04:18:19;;;;;;;;;31.00;28.00;;;;;;;;5081816;27;45251;-64
2022/05/04 04:23:28;;;;;;;;;32.00;31.00;;;;;;;;5081265;27;45823;-64
2022/05/04 04:25:53;;;;;;;;;32.50;30.75;;;;;;;;5081106;27;45344;-64
2022/05/04 04:28:20;;;;;;;;;38.00;34.75;;;;;;;;5056974;27;45742;-64
2022/05/04 04:30:46;;;;;;;;;30.00;29.50;;;;;;;;5071730;28;45961;-64
2022/05/04 04:33:12;;;;;;;;;32.50;29.00;;;;;;;;5080606;27;45420;-63
2022/05/04 04:35:37;;;;;;;;;41.50;32.75;;;;;;;;5063575;28;45393;-64
2022/05/04 04:38:02;;;;;;;;;32.75;31.25;;;;;;;;5085017;27;45495;-64
2022/05/04 04:40:27;;;;;;;;;39.25;31.75;;;;;;;;5096794;27;45321;-65
2022/05/04 04:42:52;;;;;;;;;34.50;30.00;;;;;;;;5080512;27;46529;-64
2022/05/04 04:45:18;;;;;;;;;39.00;31.25;;;;;;;;5086653;27;45406;-64
2022/05/04 04:47:46;;;;;;;;;32.00;31.00;;;;;;;;5096442;27;45341;-64
2022/05/04 04:50:12;;;;;;;;;27.00;25.75;;;;;;;;5093286;27;45504;-64
2022/05/04 04:52:37;;;;;;;;;34.50;29.75;;;;;;;;5082586;27;45989;-64
2022/05/04 04:55:03;;;;;;;;;33.75;30.25;;;;;;;;5080342;27;45484;-65
2022/05/04 04:57:28;;;;;;;;;31.50;30.50;;;;;;;;5082957;27;45520;-64
2022/05/04 04:59:53;;;;;;;;;34.00;31.75;;;;;;;;5084803;27;45401;-64
2022/05/04 05:02:19;;;;;;;;;36.00;30.50;;;;;;;;5065030;28;48459;-65
2022/05/04 05:04:44;;;;;;;;;32.75;27.25;;;;;;;;5060696;28;45741;-64
2022/05/04 05:07:09;;;;;;;;;41.50;34.25;;;;;;;;5078898;27;45429;-64
2022/05/04 05:09:34;;;;;;;;;36.00;31.00;;;;;;;;5075411;28;45541;-64
2022/05/04 05:11:59;;;;;;;;;30.75;29.50;;;;;;;;5067787;28;46463;-64
2022/05/04 05:17:08;;;;;;;;;32.25;29.50;;;;;;;;5087154;27;45535;-63
2022/05/04 05:19:34;;;;;;;;;30.25;26.75;;;;;;;;5096072;27;45418;-66
2022/05/04 05:21:59;;;;;;;;;32.75;30.00;;;;;;;;5079551;27;46280;-63
2022/05/04 05:24:24;;;;;;;;;32.25;28.00;;;;;;;;5083809;27;45417;-63
2022/05/04 05:26:49;;;;;;;;;30.50;30.50;;;;;;;;5084487;27;45746;-63
2022/05/04 05:29:15;;;;;;;;;35.75;31.75;;;;;;;;5084143;27;45476;-65
2022/05/04 05:31:40;;;;;;;;;29.75;29.75;;;;;;;;5082401;27;45430;-64
2022/05/04 05:34:05;;;;;;;;;32.75;32.00;;;;;;;;5079371;27;46316;-64
2022/05/04 05:36:30;;;;;;;;;30.25;28.25;;;;;;;;5082876;27;45418;-63
2022/05/04 05:38:56;;;;;;;;;29.00;28.00;;;;;;;;5083874;27;45483;-63
2022/05/04 05:41:23;;;;;;;;;37.00;32.25;;;;;;;;5064547;28;48599;-64
2022/05/04 05:43:48;;;;;;;;;28.25;27.75;;;;;;;;5083442;27;45723;-63
2022/05/04 05:46:14;;;;;;;;;34.50;27.75;;;;;;;;5079173;27;45342;-64
2022/05/04 05:48:39;;;;;;;;;33.00;30.00;;;;;;;;5080216;27;45427;-63
2022/05/04 05:51:05;;;;;;;;;36.50;33.25;;;;;;;;5066450;28;47833;-63
2022/05/04 05:53:30;;;;;;;;;32.00;30.25;;;;;;;;5083666;27;45395;-64
2022/05/04 05:55:57;;;;;;;;;32.75;29.50;;;;;;;;5084280;27;45610;-64
2022/05/04 05:58:22;;;;;;;;;29.50;28.75;;;;;;;;5095246;27;45451;-62
2022/05/04 06:00:47;;;;;;;;;31.75;30.00;;;;;;;;5079415;27;45396;-63
2022/05/04 06:03:14;;;;;;;;;32.75;29.00;;;;;;;;5082648;27;45392;-65
2022/05/04 06:05:39;;;;;;;;;30.75;28.00;;;;;;;;5083341;27;45476;-65
2022/05/04 06:08:05;;;;;;;;;36.50;32.00;;;;;;;;5064844;27;45764;-63
2022/05/04 06:10:30;;;;;;;;;32.00;30.50;;;;;;;;5076330;27;45946;-63
2022/05/04 06:12:55;;;;;;;;;35.75;33.25;;;;;;;;5078618;27;45296;-64
2022/05/04 06:15:20;;;;;;;;;33.00;30.00;;;;;;;;5082864;27;45526;-64
2022/05/04 06:17:47;;;;;;;;;29.00;27.75;;;;;;;;5091909;27;45522;-64
2022/05/04 06:20:12;;;;;;;;;34.75;29.25;;;;;;;;5071802;27;46695;-63
2022/05/04 06:22:38;;;;;;;;;32.75;29.50;;;;;;;;5079014;27;45475;-63
2022/05/04 06:25:03;;;;;;;;;31.75;28.50;;;;;;;;5075251;27;45246;-63
2022/05/04 06:27:30;;;;;;;;;34.50;29.25;;;;;;;;5076360;27;45290;-64
2022/05/04 06:35:23;;;;;;;;;34.50;31.25;;;;;;;;5082515;27;45461;-64
2022/05/04 06:37:48;;;;;;;;;30.50;25.50;;;;;;;;5082305;27;45519;-63
2022/05/04 06:40:13;;;;;;;;;29.00;26.00;;;;;;;;5078123;27;45641;-63
2022/05/04 06:42:39;;;;;;;;;30.50;28.50;;;;;;;;5080500;27;45319;-63
2022/05/04 06:45:05;;;;;;;;;34.75;31.00;;;;;;;;5082804;27;45561;-63
2022/05/04 06:47:30;;;;;;;;;35.00;30.75;;;;;;;;5075621;27;45559;-63
2022/05/04 06:49:55;;;;;;;;;33.25;29.00;;;;;;;;5093667;27;46506;-63
2022/05/04 06:52:24;;;;;;;;;31.75;29.25;;;;;;;;5075981;27;45627;-64
2022/05/04 06:54:49;;;;;;;;;33.75;32.00;;;;;;;;5091681;27;45476;-64
2022/05/04 06:57:14;;;;;;;;;33.25;31.00;;;;;;;;5082544;27;45475;-64
2022/05/04 06:59:40;;;;;;;;;32.50;30.75;;;;;;;;5062539;28;45625;-64
2022/05/04 07:02:05;;;;;;;;;32.25;30.75;;;;;;;;5082657;27;45499;-64
2022/05/04 07:04:31;;;;;;;;;30.50;29.75;;;;;;;;5079865;27;45458;-64
2022/05/04 07:06:58;;;;;;;;;40.75;33.25;;;;;;;;5080992;27;45445;-64
2022/05/04 07:09:23;;;;;;;;;34.50;31.00;;;;;;;;5078761;27;46631;-64
2022/05/04 07:11:48;;;;;;;;;35.00;30.75;;;;;;;;5082666;27;45483;-64
2022/05/04 07:14:14;;;;;;;;;35.75;32.00;;;;;;;;5082724;27;45409;-64
2022/05/04 07:16:40;;;;;;;;;33.00;31.00;;;;;;;;5057894;28;45648;-65
2022/05/04 07:19:05;;;;;;;;;31.25;29.75;;;;;;;;5075933;27;47582;-64
2022/05/04 07:21:30;;;;;;;;;36.00;33.75;;;;;;;;5076376;27;47181;-64
2022/05/04 07:23:55;;;;;;;;;26.00;22.75;;;;;;;;5085608;27;45416;-63
2022/05/04 07:26:21;;;;;;;;;30.00;29.75;;;;;;;;5082722;27;45507;-64
2022/05/04 07:28:46;;;;;;;;;30.50;30.50;;;;;;;;5059746;28;48464;-64
2022/05/04 07:31:11;;;;;;;;;41.25;34.00;;;;;;;;5075705;27;45416;-64
2022/05/04 07:33:36;;;;;;;;;30.50;28.00;;;;;;;;5080375;27;45392;-63
2022/05/04 07:36:02;;;;;;;;;45.75;34.50;;;;;;;;5082697;27;45435;-63
2022/05/04 07:38:27;;;;;;;;;31.25;24.50;;;;;;;;5063610;28;48951;-63
2022/05/04 07:43:36;;;;;;;;;34.50;31.00;;;;;;;;5079317;27;45372;-64
2022/05/04 07:46:01;;;;;;;;;27.50;24.75;;;;;;;;5094135;27;45391;-63
2022/05/04 07:48:26;;;;;;;;;39.50;35.00;;;;;;;;5081300;27;45383;-64
2022/05/04 07:50:51;;;;;;;;;36.50;31.50;;;;;;;;5082205;27;45518;-63
2022/05/04 07:53:17;;;;;;;;;39.75;33.50;;;;;;;;5085592;27;45513;-63
2022/05/04 07:55:42;;;;;;;;;39.00;32.25;;;;;;;;5094003;27;45558;-63
2022/05/04 07:58:07;;;;;;;;;34.00;31.25;;;;;;;;5077121;27;46090;-63
2022/05/04 08:06:00;;;;;;;;;38.75;31.25;;;;;;;;5081910;27;45409;-63
2022/05/04 08:08:25;;;;;;;;;36.00;33.25;;;;;;;;5081946;27;45585;-64
2022/05/04 08:10:51;;;;;;;;;39.00;30.75;;;;;;;;5064362;27;45458;-63
2022/05/04 08:13:19;;;;;;;;;35.50;31.75;;;;;;;;5095920;27;45396;-63
2022/05/04 08:15:44;;;;;;;;;30.75;28.00;;;;;;;;5082126;27;45496;-63
2022/05/04 08:18:09;;;;;;;;;24.75;24.00;;;;;;;;5085312;27;45500;-63
2022/05/04 08:20:35;;;;;;;;;33.25;31.00;;;;;;;;5085418;27;45511;-63
2022/05/04 08:23:00;;;;;;;;;38.75;32.50;;;;;;;;5088384;27;45474;-64
2022/05/04 08:25:26;;;;;;;;;40.50;34.25;;;;;;;;5062825;27;45401;-63
2022/05/04 08:27:51;;;;;;;;;34.50;31.25;;;;;;;;5080805;27;46227;-63
2022/05/04 08:30:17;;;;;;;;;36.25;31.00;;;;;;;;5085209;27;45774;-62
2022/05/04 08:32:46;;;;;;;;;34.25;32.25;;;;;;;;5092045;27;45476;-63
2022/05/04 08:35:12;;;;;;;;;36.25;32.75;;;;;;;;5094447;27;45634;-64
2022/05/04 08:37:37;;;;;;;;;33.50;31.25;;;;;;;;5082776;27;46188;-62
2022/05/04 08:40:03;;;;;;;;;30.75;29.00;;;;;;;;5080098;27;45610;-64
2022/05/04 08:42:28;;;;;;;;;36.50;31.50;;;;;;;;5083935;27;45408;-64
2022/05/04 08:44:56;;;;;;;;;41.00;32.25;;;;;;;;5084922;27;45479;-63
2022/05/04 08:47:22;;;;;;;;;45.00;37.50;;;;;;;;5084733;27;46828;-63
2022/05/04 08:49:48;;;;;;;;;41.75;31.25;;;;;;;;5083935;27;45409;-63
2022/05/04 08:52:13;;;;;;;;;36.00;32.75;;;;;;;;5080286;27;45418;-63
2022/05/04 08:54:38;;;;;;;;;36.25;32.50;;;;;;;;5082374;27;45538;-63
2022/05/04 08:57:04;;;;;;;;;41.25;33.25;;;;;;;;5084600;27;45962;-63
2022/05/04 08:59:29;;;;;;;;;40.75;32.25;;;;;;;;5084454;27;45468;-64
2022/05/04 09:01:54;;;;;;;;;36.50;33.25;;;;;;;;5084529;27;45574;-63
2022/05/04 09:04:19;;;;;;;;;34.75;32.25;;;;;;;;5080046;27;45255;-63
2022/05/04 09:06:44;;;;;;;;;38.00;32.75;;;;;;;;5081220;27;45546;-63
2022/05/04 09:09:10;;;;;;;;;40.50;33.75;;;;;;;;5065770;28;45490;-64
2022/05/04 09:11:36;;;;;;;;;32.25;31.00;;;;;;;;5084467;27;45373;-64
2022/05/04 09:14:06;;;;;;;;;44.75;34.75;;;;;;;;5084171;27;45537;-64
2022/05/04 09:16:32;;;;;;;;;40.00;36.00;;;;;;;;5081203;27;46492;-65
2022/05/04 09:19:05;;;;;;;;;38.00;33.25;;;;;;;;5079329;27;45431;-62
2022/05/04 09:21:30;;;;;;;;;40.75;35.00;;;;;;;;5096406;27;45525;-64
2022/05/04 09:23:55;;;;;;;;;42.00;36.00;;;;;;;;5086830;27;45393;-64
2022/05/04 09:26:22;;;;;;;;;28.00;26.75;;;;;;;;5064611;28;47545;-64
2022/05/04 09:28:51;;;;;;;;;41.75;36.50;;;;;;;;5060945;28;45494;-64
2022/05/04 09:31:18;;;;;;;;;44.25;35.50;;;;;;;;5094902;27;45498;-64
2022/05/04 09:33:43;;;;;;;;;32.50;30.50;;;;;;;;5080576;27;45564;-64
2022/05/04 09:36:10;;;;;;;;;31.75;31.25;;;;;;;;5065286;28;47615;-64
2022/05/04 09:46:52;;;;;;;;;32.75;30.25;;;;;;;;5083653;27;45883;-64
2022/05/04 09:49:18;;;;;;;;;34.00;29.25;;;;;;;;5079026;27;45583;-64
2022/05/04 09:51:48;;;;;;;;;30.25;28.50;;;;;;;;5096522;27;45391;-64
2022/05/04 09:54:14;;;;;;;;;31.25;29.75;;;;;;;;5084262;27;45662;-64
2022/05/04 09:56:39;;;;;;;;;25.75;24.25;;;;;;;;5064914;28;48495;-64
2022/05/04 09:59:05;;;;;;;;;26.50;25.50;;;;;;;;5083695;27;45388;-65
2022/05/04 10:01:31;;;;;;;;;28.50;27.00;;;;;;;;5060079;27;45434;-65
2022/05/04 10:03:59;;;;;;;;;24.00;24.00;;;;;;;;5079109;27;45420;-64
2022/05/04 10:06:24;;;;;;;;;23.25;23.25;;;;;;;;5094347;27;45890;-65
2022/05/04 10:08:49;;;;;;;;;26.25;24.75;;;;;;;;5068830;28;45555;-65
2022/05/04 10:11:15;;;;;;;;;26.50;26.50;;;;;;;;5083514;27;45385;-65
2022/05/04 10:13:40;;;;;;;;;23.00;23.00;;;;;;;;5082076;27;45552;-66
2022/05/04 10:16:10;;;;;;;;;25.75;24.50;;;;;;;;5078292;27;46225;-67
2022/05/04 10:18:36;;;;;;;;;27.25;22.75;;;;;;;;5094089;27;45334;-65
2022/05/04 10:21:12;;;;;;;;;23.00;23.00;;;;;;;;5085656;27;45490;-65
2022/05/04 10:23:41;;;;;;;;;17.75;17.50;;;;;;;;5083185;27;45468;-65
2022/05/04 10:26:06;;;;;;;;;22.50;19.75;;;;;;;;5082989;27;45746;-65
2022/05/04 10:28:36;;;;;;;;;23.75;21.75;;;;;;;;5080397;27;45545;-66
2022/05/04 10:31:06;;;;;;;;;15.75;15.75;;;;;;;;5074588;27;45365;-64
2022/05/04 10:33:32;;;;;;;;;17.50;17.50;;;;;;;;5081783;27;45597;-65
2022/05/04 10:36:13;;;;;;;;;18.00;16.25;;;;;;;;5063840;28;47361;-64
2022/05/04 10:38:41;;;;;;;;;15.00;15.00;;;;;;;;5083203;27;45523;-65
2022/05/04 10:41:07;;;;;;;;;13.00;12.75;;;;;;;;5083419;27;49801;-63
2022/05/04 10:43:51;;;;;;;;;14.75;11.50;;;;;;;;5080306;27;45602;-64
2022/05/04 10:46:18;;;;;;;;;13.00;10.75;;;;;;;;5076501;27;45483;-65
2022/05/04 10:48:44;;;;;;;;;12.25;10.25;;;;;;;;5073705;28;46029;-65
2022/05/04 10:51:09;;;;;;;;;9.75;8.75;;;;;;;;5083106;27;45601;-64
2022/05/04 10:53:36;;;;;;;;;14.50;10.00;;;;;;;;5064706;28;46520;-65
2022/05/04 10:56:01;;;;;;;;;14.00;14.00;;;;;;;;5083568;27;46668;-65
2022/05/04 10:58:32;;;;;;;;;11.25;11.25;;;;;;;;5079508;27;45432;-64
2022/05/04 11:01:21;;;;;;;;;11.25;11.25;;;;;;;;5078232;27;45440;-64
2022/05/04 11:04:05;;;;;;;;;12.50;11.00;;;;;;;;5047656;28;45603;-64
2022/05/04 11:06:31;;;;;;;;;9.25;9.25;;;;;;;;5095041;27;46506;-65
2022/05/04 11:08:59;;;;;;;;;9.25;8.25;;;;;;;;5094213;27;45312;-65
2022/05/04 11:11:25;;;;;;;;;10.50;10.50;;;;;;;;5090398;27;45434;-65
2022/05/04 11:13:51;;;;;;;;;11.00;8.75;;;;;;;;5082414;27;45446;-65
2022/05/04 11:16:17;;;;;;;;;10.00;9.00;;;;;;;;5077625;27;46309;-65
2022/05/04 11:18:42;;;;;;;;;9.75;9.00;;;;;;;;5079325;27;45385;-64
2022/05/04 11:21:11;;;;;;;;;11.50;11.50;;;;;;;;5082524;27;45788;-64
2022/05/04 11:23:37;;;;;;;;;8.75;8.50;;;;;;;;5082610;27;45621;-64
2022/05/04 11:26:02;;;;;;;;;10.25;8.50;;;;;;;;5082194;27;46556;-65
2022/05/04 11:28:27;;;;;;;;;7.00;7.00;;;;;;;;5059665;27;46113;-64
2022/05/04 11:30:53;;;;;;;;;8.50;8.50;;;;;;;;5060107;27;45426;-64
2022/05/04 11:33:18;;;;;;;;;7.50;7.50;;;;;;;;5082295;27;45467;-64
2022/05/04 11:35:44;;;;;;;;;10.00;9.00;;;;;;;;5081698;27;46216;-64
2022/05/04 11:38:19;;;;;;;;;9.00;9.00;;;;;;;;5082369;27;45860;-64
2022/05/04 11:40:46;;;;;;;;;7.00;7.00;;;;;;;;5081065;27;45338;-64
2022/05/04 11:43:20;;;;;;;;;7.75;6.50;;;;;;;;5059281;27;45436;-64
2022/05/04 11:45:46;;;;;;;;;8.00;7.25;;;;;;;;5079123;27;46602;-64
2022/05/04 11:48:11;;;;;;;;;6.50;6.00;;;;;;;;5096021;27;45565;-64
2022/05/04 11:50:37;;;;;;;;;6.25;5.75;;;;;;;;5091290;27;45605;-64
2022/05/04 11:53:02;;;;;;;;;7.25;7.25;;;;;;;;5065404;28;45514;-65
2022/05/04 11:55:29;;;;;;;;;6.75;6.75;;;;;;;;5081881;27;45789;-65
2022/05/04 11:57:54;;;;;;;;;6.75;6.75;;;;;;;;5080499;27;45545;-65
2022/05/04 12:00:19;;;;;;;;;8.00;8.00;;;;;;;;5085520;27;45522;-65
2022/05/04 12:02:45;;;;;;;;;7.00;5.25;;;;;;;;5085223;27;45352;-64
2022/05/04 12:05:10;;;;;;;;;5.75;5.75;;;;;;;;5085557;27;46491;-65
2022/05/04 12:07:35;;;;;;;;;5.00;5.00;;;;;;;;5083021;27;45443;-64
2022/05/04 12:10:00;;;;;;;;;8.75;7.50;;;;;;;;5079817;27;45424;-65
2022/05/04 12:12:26;;;;;;;;;4.75;4.50;;;;;;;;5085162;27;45509;-64
2022/05/04 12:14:52;;;;;;;;;6.75;6.75;;;;;;;;5085414;27;46253;-65
2022/05/04 12:17:23;;;;;;;;;7.50;6.75;;;;;;;;5085387;27;45306;-65
2022/05/04 12:19:49;;;;;;;;;6.75;5.75;;;;;;;;5084823;27;45542;-64
2022/05/04 12:22:14;;;;;;;;;5.00;4.75;;;;;;;;5079865;27;45474;-64
2022/05/04 12:24:42;;;;;;;;;7.50;4.50;;;;;;;;5082827;27;46526;-64
2022/05/04 12:27:07;;;;;;;;;4.00;3.00;;;;;;;;5093390;27;45515;-64
2022/05/04 12:35:01;;;;;;;;;4.75;4.75;;;;;;;;5083881;27;45447;-63
2022/05/04 12:37:30;;;;;;;;;6.00;3.50;;;;;;;;5080345;27;45598;-64
2022/05/04 12:39:56;;;;;;;;;4.00;3.00;;;;;;;;5095974;27;45695;-63
2022/05/04 12:42:21;;;;;;;;;4.00;4.00;;;;;;;;5083958;27;45443;-65
2022/05/04 12:44:50;;;;;;;;;3.00;3.00;;;;;;;;5083952;27;45448;-65
2022/05/04 12:47:15;;;;;;;;;4.00;4.00;;;;;;;;5084170;27;45530;-65
2022/05/04 12:49:41;;;;;;;;;6.00;3.75;;;;;;;;5077731;27;45472;-65
2022/05/04 12:52:06;;;;;;;;;5.00;3.25;;;;;;;;5079956;27;45303;-64
2022/05/04 12:54:32;;;;;;;;;3.00;3.00;;;;;;;;5083153;27;45651;-64
2022/05/04 12:56:58;;;;;;;;;6.25;5.75;;;;;;;;5084811;27;45398;-64
2022/05/04 12:59:23;;;;;;;;;4.00;4.00;;;;;;;;5084012;27;45468;-64
2022/05/04 13:01:48;;;;;;;;;5.50;3.00;;;;;;;;5083933;27;45603;-64
2022/05/04 13:04:15;;;;;;;;;3.00;3.00;;;;;;;;5079803;27;46334;-64
2022/05/04 13:06:40;;;;;;;;;2.25;2.25;;;;;;;;5097143;27;45376;-64
2022/05/04 13:09:06;;;;;;;;;4.00;3.00;;;;;;;;5086546;27;45887;-64
2022/05/04 13:11:33;;;;;;;;;4.00;4.00;;;;;;;;5084775;27;45560;-64
2022/05/04 13:13:58;;;;;;;;;3.50;2.50;;;;;;;;5084524;27;45995;-64
2022/05/04 13:16:23;;;;;;;;;2.25;1.50;;;;;;;;5080386;27;45817;-65
2022/05/04 13:18:49;;;;;;;;;2.00;2.00;;;;;;;;5081399;27;45326;-65
2022/05/04 13:21:14;;;;;;;;;2.00;2.00;;;;;;;;5084384;27;45588;-65
2022/05/04 13:23:40;;;;;;;;;3.50;3.00;;;;;;;;5084757;27;45650;-64
2022/05/04 13:26:06;;;;;;;;;2.25;2.25;;;;;;;;5084800;27;45402;-64
2022/05/04 13:28:31;;;;;;;;;2.50;2.50;;;;;;;;5081204;27;45281;-64
2022/05/04 13:30:59;;;;;;;;;2.00;2.00;;;;;;;;5079881;27;45389;-63
2022/05/04 13:33:25;;;;;;;;;2.00;2.00;;;;;;;;5095461;27;45794;-64
2022/05/04 13:35:50;;;;;;;;;2.00;2.00;;;;;;;;5087885;27;45611;-63
2022/05/04 13:38:15;;;;;;;;;3.25;1.75;;;;;;;;5084595;27;45472;-64
2022/05/04 13:40:40;;;;;;;;;1.50;1.50;;;;;;;;5082558;27;45727;-63
2022/05/04 13:43:05;;;;;;;;;3.00;3.00;;;;;;;;5079563;27;47653;-63
2022/05/04 13:45:31;;;;;;;;;2.00;1.00;;;;;;;;5074708;28;45526;-64
2022/05/04 13:47:56;;;;;;;;;2.00;2.00;;;;;;;;5084299;27;46063;-65
2022/05/04 13:53:14;;;;;;;;;0.50;0.50;;;;;;;;5094123;27;45428;-65
2022/05/04 13:55:40;;;;;;;;;1.50;1.50;;;;;;;;5082018;27;45421;-64
2022/05/04 13:58:05;;;;;;;;;2.00;2.00;;;;;;;;5079598;27;45377;-63
2022/05/04 14:00:31;;;;;;;;;1.25;1.25;;;;;;;;5082795;27;45469;-63
2022/05/04 14:02:56;;;;;;;;;3.00;1.00;;;;;;;;5084051;27;45756;-64
2022/05/04 14:05:21;;;;;;;;;1.00;1.00;;;;;;;;5083765;27;45636;-65
2022/05/04 14:07:46;;;;;;;;;2.75;2.00;;;;;;;;5082982;27;45535;-65
2022/05/04 14:10:12;;;;;;;;;2.25;1.25;;;;;;;;5077972;27;45429;-65
2022/05/04 14:12:37;;;;;;;;;2.00;2.00;;;;;;;;5063313;28;48763;-65
2022/05/04 14:15:02;;;;;;;;;2.00;2.00;;;;;;;;5083862;27;45414;-64
2022/05/04 14:17:28;;;;;;;;;2.75;2.00;;;;;;;;5061187;28;45391;-65
2022/05/04 14:19:53;;;;;;;;;2.00;2.00;;;;;;;;5083530;27;45598;-65
2022/05/04 14:22:19;;;;;;;;;2.00;2.00;;;;;;;;5077032;27;46199;-64
2022/05/04 14:24:44;;;;;;;;;1.75;1.75;;;;;;;;5078629;27;45533;-65
2022/05/04 14:27:10;;;;;;;;;2.00;2.00;;;;;;;;5080965;27;45438;-65
2022/05/04 14:29:35;;;;;;;;;1.00;1.00;;;;;;;;5080730;27;45419;-64
2022/05/04 14:32:08;;;;;;;;;3.00;2.00;;;;;;;;5086740;27;45421;-64
2022/05/04 14:34:34;;;;;;;;;1.75;1.75;;;;;;;;5084168;27;45468;-64
2022/05/04 14:36:59;;;;;;;;;4.50;2.00;;;;;;;;5073948;27;45336;-64
2022/05/04 14:39:24;;;;;;;;;2.00;2.00;;;;;;;;5074340;27;45556;-65
2022/05/04 14:41:49;;;;;;;;;3.00;2.00;;;;;;;;5073634;27;46694;-65
2022/05/04 14:44:14;;;;;;;;;4.25;4.25;;;;;;;;5073746;27;45530;-64
2022/05/04 14:46:40;;;;;;;;;3.25;2.25;;;;;;;;5071546;27;45480;-65
2022/05/04 14:49:05;;;;;;;;;5.25;2.75;;;;;;;;5072115;27;45422;-64
2022/05/04 14:51:31;;;;;;;;;2.00;2.00;;;;;;;;5074859;27;46361;-64
2022/05/04 14:53:56;;;;;;;;;2.00;2.00;;;;;;;;5073450;27;45392;-65